sensor_id;sensor_type;location;lat;lon;timestamp;temperature;humidity
51878;SHT31;37911;51.526;11.536;2022-11-18T00:01:25;4.92;96.49
51878;SHT31;37911;51.526;11.536;2022-11-18T00:04:31;4.91;96.51
51878;SHT31;37911;51.526;11.536;2022-11-18T00:07:35;4.92;96.38
51878;SHT31;37911;51.526;11.536;2022-11-18T00:10:38;4.91;96.35
51878;SHT31;37911;51.526;11.536;2022-11-18T00:13:42;4.92;96.32
51878;SHT31;37911;51.526;11.536;2022-11-18T00:17:00;4.85;96.38
51878;SHT31;37911;51.526;11.536;2022-11-18T00:20:07;4.83;96.44
51878;SHT31;37911;51.526;11.536;2022-11-18T00:23:11;4.86;96.42
51878;SHT31;37911;51.526;11.536;2022-11-18T00:26:14;4.88;96.36
51878;SHT31;37911;51.526;11.536;2022-11-18T00:29:19;4.92;96.29
51878;SHT31;37911;51.526;11.536;2022-11-18T00:32:23;4.96;96.31
51878;SHT31;37911;51.526;11.536;2022-11-18T00:35:29;4.96;96.10
51878;SHT31;37911;51.526;11.536;2022-11-18T00:38:33;4.93;96.06
51878;SHT31;37911;51.526;11.536;2022-11-18T00:41:37;4.95;96.23
51878;SHT31;37911;51.526;11.536;2022-11-18T00:44:53;4.92;96.07
51878;SHT31;37911;51.526;11.536;2022-11-18T00:47:57;4.89;95.98
51878;SHT31;37911;51.526;11.536;2022-11-18T00:51:09;4.88;96.05
51878;SHT31;37911;51.526;11.536;2022-11-18T00:54:13;4.95;95.99
51878;SHT31;37911;51.526;11.536;2022-11-18T00:57:19;4.96;95.83
51878;SHT31;37911;51.526;11.536;2022-11-18T01:00:23;4.97;95.91
51878;SHT31;37911;51.526;11.536;2022-11-18T01:03:30;4.93;95.80
51878;SHT31;37911;51.526;11.536;2022-11-18T01:06:37;4.91;95.81
51878;SHT31;37911;51.526;11.536;2022-11-18T01:09:41;4.81;95.89
51878;SHT31;37911;51.526;11.536;2022-11-18T01:12:44;4.85;95.95
51878;SHT31;37911;51.526;11.536;2022-11-18T01:16:00;4.85;95.93
51878;SHT31;37911;51.526;11.536;2022-11-18T01:19:04;4.85;96.04
51878;SHT31;37911;51.526;11.536;2022-11-18T01:22:10;4.86;95.93
51878;SHT31;37911;51.526;11.536;2022-11-18T01:25:14;4.85;95.94
51878;SHT31;37911;51.526;11.536;2022-11-18T01:28:18;4.89;95.88
51878;SHT31;37911;51.526;11.536;2022-11-18T01:31:22;4.85;96.00
51878;SHT31;37911;51.526;11.536;2022-11-18T01:34:27;4.88;96.00
51878;SHT31;37911;51.526;11.536;2022-11-18T01:37:33;4.92;95.96
51878;SHT31;37911;51.526;11.536;2022-11-18T01:40:38;4.89;95.91
51878;SHT31;37911;51.526;11.536;2022-11-18T01:43:48;4.83;95.93
51878;SHT31;37911;51.526;11.536;2022-11-18T01:46:52;4.83;95.92
51878;SHT31;37911;51.526;11.536;2022-11-18T01:49:55;4.88;95.84
51878;SHT31;37911;51.526;11.536;2022-11-18T01:53:06;4.81;95.85
51878;SHT31;37911;51.526;11.536;2022-11-18T01:56:11;4.81;95.95
51878;SHT31;37911;51.526;11.536;2022-11-18T01:59:19;4.78;95.81
51878;SHT31;37911;51.526;11.536;2022-11-18T02:02:23;4.76;95.86
51878;SHT31;37911;51.526;11.536;2022-11-18T02:05:28;4.78;95.83
51878;SHT31;37911;51.526;11.536;2022-11-18T02:08:36;4.78;95.96
51878;SHT31;37911;51.526;11.536;2022-11-18T02:11:40;4.76;95.92
51878;SHT31;37911;51.526;11.536;2022-11-18T02:14:56;4.81;95.97
51878;SHT31;37911;51.526;11.536;2022-11-18T02:18:05;4.75;95.88
51878;SHT31;37911;51.526;11.536;2022-11-18T02:21:20;4.72;95.89
51878;SHT31;37911;51.526;11.536;2022-11-18T02:24:39;4.65;95.84
51878;SHT31;37911;51.526;11.536;2022-11-18T02:28:08;4.72;95.90
51878;SHT31;37911;51.526;11.536;2022-11-18T02:31:19;4.65;95.99
51878;SHT31;37911;51.526;11.536;2022-11-18T02:34:37;4.71;96.00
51878;SHT31;37911;51.526;11.536;2022-11-18T02:37:46;4.73;95.92
51878;SHT31;37911;51.526;11.536;2022-11-18T02:40:55;4.73;95.79
51878;SHT31;37911;51.526;11.536;2022-11-18T02:44:03;4.71;95.84
51878;SHT31;37911;51.526;11.536;2022-11-18T02:47:12;4.73;95.81
51878;SHT31;37911;51.526;11.536;2022-11-18T02:50:22;4.72;95.76
51878;SHT31;37911;51.526;11.536;2022-11-18T02:53:27;4.71;95.70
51878;SHT31;37911;51.526;11.536;2022-11-18T02:56:34;4.68;95.76
51878;SHT31;37911;51.526;11.536;2022-11-18T02:59:39;4.65;95.80
51878;SHT31;37911;51.526;11.536;2022-11-18T03:02:47;4.69;95.75
51878;SHT31;37911;51.526;11.536;2022-11-18T03:05:59;4.67;95.76
51878;SHT31;37911;51.526;11.536;2022-11-18T03:09:10;4.73;95.71
51878;SHT31;37911;51.526;11.536;2022-11-18T03:12:17;4.75;95.67
51878;SHT31;37911;51.526;11.536;2022-11-18T03:15:29;4.76;95.57
51878;SHT31;37911;51.526;11.536;2022-11-18T03:18:43;4.76;95.62
51878;SHT31;37911;51.526;11.536;2022-11-18T03:21:54;4.75;95.41
51878;SHT31;37911;51.526;11.536;2022-11-18T03:25:04;4.76;95.52
51878;SHT31;37911;51.526;11.536;2022-11-18T03:28:11;4.73;95.47
51878;SHT31;37911;51.526;11.536;2022-11-18T03:31:19;4.72;95.50
51878;SHT31;37911;51.526;11.536;2022-11-18T03:34:32;4.76;95.47
51878;SHT31;37911;51.526;11.536;2022-11-18T03:37:37;4.78;95.44
51878;SHT31;37911;51.526;11.536;2022-11-18T03:40:46;4.78;95.40
51878;SHT31;37911;51.526;11.536;2022-11-18T03:43:56;4.73;95.36
51878;SHT31;37911;51.526;11.536;2022-11-18T03:47:04;4.72;95.35
51878;SHT31;37911;51.526;11.536;2022-11-18T03:50:19;4.71;95.18
51878;SHT31;37911;51.526;11.536;2022-11-18T03:53:25;4.72;95.28
51878;SHT31;37911;51.526;11.536;2022-11-18T03:56:33;4.72;95.24
51878;SHT31;37911;51.526;11.536;2022-11-18T03:59:42;4.69;95.19
51878;SHT31;37911;51.526;11.536;2022-11-18T04:02:47;4.65;95.19
51878;SHT31;37911;51.526;11.536;2022-11-18T04:06:01;4.57;95.23
51878;SHT31;37911;51.526;11.536;2022-11-18T04:09:08;4.54;95.20
51878;SHT31;37911;51.526;11.536;2022-11-18T04:12:16;4.51;95.13
51878;SHT31;37911;51.526;11.536;2022-11-18T04:15:23;4.48;95.21
51878;SHT31;37911;51.526;11.536;2022-11-18T04:18:27;4.47;95.31
51878;SHT31;37911;51.526;11.536;2022-11-18T04:21:33;4.36;95.27
51878;SHT31;37911;51.526;11.536;2022-11-18T04:24:37;4.28;95.40
51878;SHT31;37911;51.526;11.536;2022-11-18T04:27:41;4.25;95.36
51878;SHT31;37911;51.526;11.536;2022-11-18T04:30:44;4.20;95.49
51878;SHT31;37911;51.526;11.536;2022-11-18T04:33:50;4.18;95.54
51878;SHT31;37911;51.526;11.536;2022-11-18T04:36:57;4.21;95.51
51878;SHT31;37911;51.526;11.536;2022-11-18T04:40:01;4.13;95.58
51878;SHT31;37911;51.526;11.536;2022-11-18T04:43:04;4.04;95.55
51878;SHT31;37911;51.526;11.536;2022-11-18T04:46:08;4.07;95.57
51878;SHT31;37911;51.526;11.536;2022-11-18T04:49:13;4.00;95.64
51878;SHT31;37911;51.526;11.536;2022-11-18T04:52:20;3.96;95.70
51878;SHT31;37911;51.526;11.536;2022-11-18T04:55:23;3.94;95.66
51878;SHT31;37911;51.526;11.536;2022-11-18T04:58:27;3.93;95.71
51878;SHT31;37911;51.526;11.536;2022-11-18T05:01:33;3.91;95.73
51878;SHT31;37911;51.526;11.536;2022-11-18T05:04:36;3.94;95.81
51878;SHT31;37911;51.526;11.536;2022-11-18T05:07:43;3.91;95.76
51878;SHT31;37911;51.526;11.536;2022-11-18T05:10:47;3.89;95.74
51878;SHT31;37911;51.526;11.536;2022-11-18T05:13:51;3.91;95.72
51878;SHT31;37911;51.526;11.536;2022-11-18T05:16:52;3.89;95.57
51878;SHT31;37911;51.526;11.536;2022-11-18T05:19:56;3.90;95.60
51878;SHT31;37911;51.526;11.536;2022-11-18T05:23:03;3.87;95.60
51878;SHT31;37911;51.526;11.536;2022-11-18T05:26:08;3.83;95.50
51878;SHT31;37911;51.526;11.536;2022-11-18T05:29:12;3.79;95.35
51878;SHT31;37911;51.526;11.536;2022-11-18T05:32:16;3.80;95.41
51878;SHT31;37911;51.526;11.536;2022-11-18T05:35:20;3.77;95.42
51878;SHT31;37911;51.526;11.536;2022-11-18T05:38:26;3.76;95.42
51878;SHT31;37911;51.526;11.536;2022-11-18T05:41:30;3.77;95.41
51878;SHT31;37911;51.526;11.536;2022-11-18T05:44:46;3.72;95.34
51878;SHT31;37911;51.526;11.536;2022-11-18T05:47:51;3.63;95.30
51878;SHT31;37911;51.526;11.536;2022-11-18T05:51:04;3.60;95.21
51878;SHT31;37911;51.526;11.536;2022-11-18T05:54:13;3.62;95.23
51878;SHT31;37911;51.526;11.536;2022-11-18T05:57:17;3.56;95.30
51878;SHT31;37911;51.526;11.536;2022-11-18T06:00:21;3.52;95.41
51878;SHT31;37911;51.526;11.536;2022-11-18T06:03:28;3.48;95.41
51878;SHT31;37911;51.526;11.536;2022-11-18T06:06:32;3.49;95.44
51878;SHT31;37911;51.526;11.536;2022-11-18T06:09:40;3.46;95.26
51878;SHT31;37911;51.526;11.536;2022-11-18T06:12:48;3.46;95.21
51878;SHT31;37911;51.526;11.536;2022-11-18T06:15:53;3.46;95.18
51878;SHT31;37911;51.526;11.536;2022-11-18T06:18:59;3.42;95.00
51878;SHT31;37911;51.526;11.536;2022-11-18T06:22:04;3.45;95.10
51878;SHT31;37911;51.526;11.536;2022-11-18T06:25:11;3.40;95.17
51878;SHT31;37911;51.526;11.536;2022-11-18T06:28:16;3.45;95.24
51878;SHT31;37911;51.526;11.536;2022-11-18T06:31:20;3.54;95.11
51878;SHT31;37911;51.526;11.536;2022-11-18T06:34:24;3.51;94.88
51878;SHT31;37911;51.526;11.536;2022-11-18T06:37:27;3.55;94.89
51878;SHT31;37911;51.526;11.536;2022-11-18T06:40:34;3.49;94.70
51878;SHT31;37911;51.526;11.536;2022-11-18T06:43:38;3.51;94.67
51878;SHT31;37911;51.526;11.536;2022-11-18T06:46:41;3.43;94.39
51878;SHT31;37911;51.526;11.536;2022-11-18T06:49:57;3.40;94.54
51878;SHT31;37911;51.526;11.536;2022-11-18T06:53:01;3.26;94.62
51878;SHT31;37911;51.526;11.536;2022-11-18T06:56:09;3.25;94.77
51878;SHT31;37911;51.526;11.536;2022-11-18T06:59:13;3.26;94.71
51878;SHT31;37911;51.526;11.536;2022-11-18T07:02:23;3.25;94.81
51878;SHT31;37911;51.526;11.536;2022-11-18T07:05:26;3.28;94.94
51878;SHT31;37911;51.526;11.536;2022-11-18T07:08:30;3.31;94.78
51878;SHT31;37911;51.526;11.536;2022-11-18T07:11:36;3.28;94.84
51878;SHT31;37911;51.526;11.536;2022-11-18T07:14:41;3.21;94.76
51878;SHT31;37911;51.526;11.536;2022-11-18T07:17:44;3.16;94.69
51878;SHT31;37911;51.526;11.536;2022-11-18T07:20:48;3.21;94.71
51878;SHT31;37911;51.526;11.536;2022-11-18T07:23:52;3.16;94.84
51878;SHT31;37911;51.526;11.536;2022-11-18T07:26:58;3.18;94.91
51878;SHT31;37911;51.526;11.536;2022-11-18T07:30:03;3.14;94.97
51878;SHT31;37911;51.526;11.536;2022-11-18T07:33:07;3.12;95.00
51878;SHT31;37911;51.526;11.536;2022-11-18T07:36:12;3.15;94.91
51878;SHT31;37911;51.526;11.536;2022-11-18T07:39:16;3.09;94.70
51878;SHT31;37911;51.526;11.536;2022-11-18T07:42:23;3.05;94.79
51878;SHT31;37911;51.526;11.536;2022-11-18T07:45:27;2.98;94.82
51878;SHT31;37911;51.526;11.536;2022-11-18T07:48:30;2.94;94.96
51878;SHT31;37911;51.526;11.536;2022-11-18T07:51:36;2.97;94.93
51878;SHT31;37911;51.526;11.536;2022-11-18T07:54:40;2.94;94.97
51878;SHT31;37911;51.526;11.536;2022-11-18T07:57:46;2.90;94.99
51878;SHT31;37911;51.526;11.536;2022-11-18T08:00:53;2.83;94.85
51878;SHT31;37911;51.526;11.536;2022-11-18T08:04:02;2.76;94.86
51878;SHT31;37911;51.526;11.536;2022-11-18T08:07:08;2.74;95.25
51878;SHT31;37911;51.526;11.536;2022-11-18T08:10:12;2.68;95.16
51878;SHT31;37911;51.526;11.536;2022-11-18T08:13:20;2.71;95.20
51878;SHT31;37911;51.526;11.536;2022-11-18T08:16:25;2.70;95.16
51878;SHT31;37911;51.526;11.536;2022-11-18T08:19:29;2.63;95.30
51878;SHT31;37911;51.526;11.536;2022-11-18T08:22:33;2.65;95.40
51878;SHT31;37911;51.526;11.536;2022-11-18T08:25:36;2.70;95.35
51878;SHT31;37911;51.526;11.536;2022-11-18T08:28:43;2.74;95.22
51878;SHT31;37911;51.526;11.536;2022-11-18T08:31:47;2.64;94.87
51878;SHT31;37911;51.526;11.536;2022-11-18T08:34:51;2.56;94.84
51878;SHT31;37911;51.526;11.536;2022-11-18T08:37:55;2.56;95.01
51878;SHT31;37911;51.526;11.536;2022-11-18T08:40:58;2.50;94.86
51878;SHT31;37911;51.526;11.536;2022-11-18T08:44:06;2.50;94.58
51878;SHT31;37911;51.526;11.536;2022-11-18T08:47:10;2.33;94.66
51878;SHT31;37911;51.526;11.536;2022-11-18T08:50:14;2.30;94.76
51878;SHT31;37911;51.526;11.536;2022-11-18T08:53:18;2.25;94.66
51878;SHT31;37911;51.526;11.536;2022-11-18T08:56:23;2.19;94.79
51878;SHT31;37911;51.526;11.536;2022-11-18T08:59:29;2.26;94.88
51878;SHT31;37911;51.526;11.536;2022-11-18T09:02:33;2.22;94.96
51878;SHT31;37911;51.526;11.536;2022-11-18T09:05:36;2.32;94.88
51878;SHT31;37911;51.526;11.536;2022-11-18T09:08:41;2.23;94.84
51878;SHT31;37911;51.526;11.536;2022-11-18T09:11:44;2.25;94.73
51878;SHT31;37911;51.526;11.536;2022-11-18T09:14:51;2.20;94.56
51878;SHT31;37911;51.526;11.536;2022-11-18T09:17:55;2.23;94.58
51878;SHT31;37911;51.526;11.536;2022-11-18T09:21:00;2.23;94.60
51878;SHT31;37911;51.526;11.536;2022-11-18T09:24:05;2.25;94.51
51878;SHT31;37911;51.526;11.536;2022-11-18T09:27:11;2.34;94.41
51878;SHT31;37911;51.526;11.536;2022-11-18T09:30:17;2.27;94.19
51878;SHT31;37911;51.526;11.536;2022-11-18T09:33:21;2.07;93.86
51878;SHT31;37911;51.526;11.536;2022-11-18T09:36:26;2.12;94.12
51878;SHT31;37911;51.526;11.536;2022-11-18T09:39:30;2.15;93.76
51878;SHT31;37911;51.526;11.536;2022-11-18T09:42:48;2.12;93.88
51878;SHT31;37911;51.526;11.536;2022-11-18T09:46:02;2.10;93.95
51878;SHT31;37911;51.526;11.536;2022-11-18T09:49:10;2.13;94.17
51878;SHT31;37911;51.526;11.536;2022-11-18T09:52:19;2.30;94.19
51878;SHT31;37911;51.526;11.536;2022-11-18T09:55:24;2.33;94.13
51878;SHT31;37911;51.526;11.536;2022-11-18T09:58:32;2.30;93.82
51878;SHT31;37911;51.526;11.536;2022-11-18T10:01:40;2.34;93.79
51878;SHT31;37911;51.526;11.536;2022-11-18T10:04:44;2.39;93.37
51878;SHT31;37911;51.526;11.536;2022-11-18T10:08:02;2.15;93.04
51878;SHT31;37911;51.526;11.536;2022-11-18T10:11:12;2.02;93.10
51878;SHT31;37911;51.526;11.536;2022-11-18T10:14:25;1.94;93.53
51878;SHT31;37911;51.526;11.536;2022-11-18T10:17:45;1.92;93.50
51878;SHT31;37911;51.526;11.536;2022-11-18T10:20:55;1.95;93.64
51878;SHT31;37911;51.526;11.536;2022-11-18T10:24:02;1.91;93.32
51878;SHT31;37911;51.526;11.536;2022-11-18T10:27:12;1.85;93.36
51878;SHT31;37911;51.526;11.536;2022-11-18T10:30:18;1.75;93.27
51878;SHT31;37911;51.526;11.536;2022-11-18T10:33:27;1.74;93.12
51878;SHT31;37911;51.526;11.536;2022-11-18T10:36:32;1.68;93.23
51878;SHT31;37911;51.526;11.536;2022-11-18T10:39:48;1.74;93.53
51878;SHT31;37911;51.526;11.536;2022-11-18T10:42:52;1.78;93.70
51878;SHT31;37911;51.526;11.536;2022-11-18T10:45:56;1.94;93.73
51878;SHT31;37911;51.526;11.536;2022-11-18T10:49:18;2.03;93.51
51878;SHT31;37911;51.526;11.536;2022-11-18T10:52:24;2.12;93.43
51878;SHT31;37911;51.526;11.536;2022-11-18T10:55:28;2.13;92.85
51878;SHT31;37911;51.526;11.536;2022-11-18T10:58:34;1.98;91.91
51878;SHT31;37911;51.526;11.536;2022-11-18T11:01:39;1.96;91.93
51878;SHT31;37911;51.526;11.536;2022-11-18T11:04:46;1.83;92.06
51878;SHT31;37911;51.526;11.536;2022-11-18T11:08:00;1.89;92.24
51878;SHT31;37911;51.526;11.536;2022-11-18T11:11:04;1.96;92.59
51878;SHT31;37911;51.526;11.536;2022-11-18T11:14:16;1.98;92.25
51878;SHT31;37911;51.526;11.536;2022-11-18T11:17:27;1.94;92.14
51878;SHT31;37911;51.526;11.536;2022-11-18T11:20:35;1.91;92.02
51878;SHT31;37911;51.526;11.536;2022-11-18T11:23:39;1.86;91.97
51878;SHT31;37911;51.526;11.536;2022-11-18T11:26:51;1.78;92.26
51878;SHT31;37911;51.526;11.536;2022-11-18T11:30:14;1.76;92.21
51878;SHT31;37911;51.526;11.536;2022-11-18T11:33:29;1.74;92.15
51878;SHT31;37911;51.526;11.536;2022-11-18T11:36:45;1.71;92.51
51878;SHT31;37911;51.526;11.536;2022-11-18T11:40:02;1.54;92.11
51878;SHT31;37911;51.526;11.536;2022-11-18T11:43:25;1.52;92.16
51878;SHT31;37911;51.526;11.536;2022-11-18T11:46:36;1.59;92.39
51878;SHT31;37911;51.526;11.536;2022-11-18T11:49:48;1.61;92.16
51878;SHT31;37911;51.526;11.536;2022-11-18T11:53:14;1.51;92.01
51878;SHT31;37911;51.526;11.536;2022-11-18T11:56:24;1.55;92.06
51878;SHT31;37911;51.526;11.536;2022-11-18T11:59:36;1.47;92.43
51878;SHT31;37911;51.526;11.536;2022-11-18T12:02:55;1.44;92.72
51878;SHT31;37911;51.526;11.536;2022-11-18T12:06:01;1.54;92.71
51878;SHT31;37911;51.526;11.536;2022-11-18T12:09:14;1.51;92.61
51878;SHT31;37911;51.526;11.536;2022-11-18T12:12:25;1.48;92.85
51878;SHT31;37911;51.526;11.536;2022-11-18T12:15:43;1.40;92.48
51878;SHT31;37911;51.526;11.536;2022-11-18T12:18:56;1.45;92.78
51878;SHT31;37911;51.526;11.536;2022-11-18T12:22:01;1.43;92.35
51878;SHT31;37911;51.526;11.536;2022-11-18T12:25:50;1.37;91.97
51878;SHT31;37911;51.526;11.536;2022-11-18T12:29:20;1.34;92.06
51878;SHT31;37911;51.526;11.536;2022-11-18T12:32:28;1.31;92.33
51878;SHT31;37911;51.526;11.536;2022-11-18T12:35:34;1.31;92.23
51878;SHT31;37911;51.526;11.536;2022-11-18T12:38:38;1.26;92.15
51878;SHT31;37911;51.526;11.536;2022-11-18T12:41:55;1.23;92.10
51878;SHT31;37911;51.526;11.536;2022-11-18T12:52:53;1.26;91.95
51878;SHT31;37911;51.526;11.536;2022-11-18T12:55:57;1.20;91.91
51878;SHT31;37911;51.526;11.536;2022-11-18T12:59:03;1.14;91.61
51878;SHT31;37911;51.526;11.536;2022-11-18T13:02:22;1.11;91.67
51878;SHT31;37911;51.526;11.536;2022-11-18T13:05:27;1.05;91.72
51878;SHT31;37911;51.526;11.536;2022-11-18T13:08:31;0.97;91.72
51878;SHT31;37911;51.526;11.536;2022-11-18T13:11:42;0.97;91.82
51878;SHT31;37911;51.526;11.536;2022-11-18T13:14:50;1.01;92.14
51878;SHT31;37911;51.526;11.536;2022-11-18T13:18:12;1.00;92.09
51878;SHT31;37911;51.526;11.536;2022-11-18T13:21:21;0.96;91.74
51878;SHT31;37911;51.526;11.536;2022-11-18T13:24:42;0.94;91.56
51878;SHT31;37911;51.526;11.536;2022-11-18T13:27:50;1.00;91.73
51878;SHT31;37911;51.526;11.536;2022-11-18T13:31:00;0.91;91.69
51878;SHT31;37911;51.526;11.536;2022-11-18T13:34:14;0.86;91.49
51878;SHT31;37911;51.526;11.536;2022-11-18T13:37:20;0.72;91.29
51878;SHT31;37911;51.526;11.536;2022-11-18T13:40:27;0.75;91.60
51878;SHT31;37911;51.526;11.536;2022-11-18T13:43:32;0.79;91.71
51878;SHT31;37911;51.526;11.536;2022-11-18T13:46:39;0.68;91.09
51878;SHT31;37911;51.526;11.536;2022-11-18T13:49:50;0.56;91.11
51878;SHT31;37911;51.526;11.536;2022-11-18T13:53:05;0.49;91.05
51878;SHT31;37911;51.526;11.536;2022-11-18T13:56:17;0.42;91.64
51878;SHT31;37911;51.526;11.536;2022-11-18T13:59:23;0.44;92.17
51878;SHT31;37911;51.526;11.536;2022-11-18T14:02:30;0.52;92.12
51878;SHT31;37911;51.526;11.536;2022-11-18T14:05:34;0.53;92.37
51878;SHT31;37911;51.526;11.536;2022-11-18T14:08:38;0.48;92.13
51878;SHT31;37911;51.526;11.536;2022-11-18T14:11:43;0.48;92.59
51878;SHT31;37911;51.526;11.536;2022-11-18T14:14:47;0.53;92.50
51878;SHT31;37911;51.526;11.536;2022-11-18T14:17:58;0.49;93.05
51878;SHT31;37911;51.526;11.536;2022-11-18T14:21:03;0.55;93.03
51878;SHT31;37911;51.526;11.536;2022-11-18T14:24:13;0.44;93.11
51878;SHT31;37911;51.526;11.536;2022-11-18T14:27:28;0.46;92.84
51878;SHT31;37911;51.526;11.536;2022-11-18T14:30:37;0.32;92.53
51878;SHT31;37911;51.526;11.536;2022-11-18T14:34:03;0.35;92.79
51878;SHT31;37911;51.526;11.536;2022-11-18T14:37:10;0.26;92.56
51878;SHT31;37911;51.526;11.536;2022-11-18T14:40:16;0.32;92.57
51878;SHT31;37911;51.526;11.536;2022-11-18T14:43:19;0.26;92.78
51878;SHT31;37911;51.526;11.536;2022-11-18T14:46:23;0.24;92.78
51878;SHT31;37911;51.526;11.536;2022-11-18T14:49:30;0.26;92.88
51878;SHT31;37911;51.526;11.536;2022-11-18T14:52:34;0.24;92.98
51878;SHT31;37911;51.526;11.536;2022-11-18T14:55:37;0.19;92.70
51878;SHT31;37911;51.526;11.536;2022-11-18T14:58:41;0.18;92.59
51878;SHT31;37911;51.526;11.536;2022-11-18T15:01:45;0.05;91.61
51878;SHT31;37911;51.526;11.536;2022-11-18T15:04:52;0.09;91.90
51878;SHT31;37911;51.526;11.536;2022-11-18T15:07:56;-0.05;91.62
51878;SHT31;37911;51.526;11.536;2022-11-18T15:11:00;-0.03;91.74
51878;SHT31;37911;51.526;11.536;2022-11-18T15:14:04;-0.03;91.93
51878;SHT31;37911;51.526;11.536;2022-11-18T15:17:09;-0.05;91.85
51878;SHT31;37911;51.526;11.536;2022-11-18T15:20:18;-0.02;91.97
51878;SHT31;37911;51.526;11.536;2022-11-18T15:23:22;-0.05;91.58
51878;SHT31;37911;51.526;11.536;2022-11-18T15:26:28;-0.06;91.43
51878;SHT31;37911;51.526;11.536;2022-11-18T15:29:33;-0.02;91.27
51878;SHT31;37911;51.526;11.536;2022-11-18T15:32:36;-0.10;91.08
51878;SHT31;37911;51.526;11.536;2022-11-18T15:35:43;-0.10;91.58
51878;SHT31;37911;51.526;11.536;2022-11-18T15:38:47;-0.05;91.72
51878;SHT31;37911;51.526;11.536;2022-11-18T15:41:51;-0.16;91.55
51878;SHT31;37911;51.526;11.536;2022-11-18T15:44:55;-0.20;92.01
51878;SHT31;37911;51.526;11.536;2022-11-18T15:47:59;-0.22;92.23
51878;SHT31;37911;51.526;11.536;2022-11-18T15:51:06;-0.17;92.00
51878;SHT31;37911;51.526;11.536;2022-11-18T15:54:10;-0.17;91.96
51878;SHT31;37911;51.526;11.536;2022-11-18T15:57:14;-0.19;91.90
51878;SHT31;37911;51.526;11.536;2022-11-18T16:00:18;-0.33;91.32
51878;SHT31;37911;51.526;11.536;2022-11-18T16:03:21;-0.37;91.35
51878;SHT31;37911;51.526;11.536;2022-11-18T16:06:28;-0.41;91.20
51878;SHT31;37911;51.526;11.536;2022-11-18T16:09:32;-0.41;91.24
51878;SHT31;37911;51.526;11.536;2022-11-18T16:12:48;-0.33;91.25
51878;SHT31;37911;51.526;11.536;2022-11-18T16:15:51;-0.37;90.85
51878;SHT31;37911;51.526;11.536;2022-11-18T16:18:56;-0.44;90.82
51878;SHT31;37911;51.526;11.536;2022-11-18T16:22:02;-0.50;91.19
51878;SHT31;37911;51.526;11.536;2022-11-18T16:25:07;-0.47;91.26
51878;SHT31;37911;51.526;11.536;2022-11-18T16:28:10;-0.39;91.70
51878;SHT31;37911;51.526;11.536;2022-11-18T16:31:16;-0.44;91.90
51878;SHT31;37911;51.526;11.536;2022-11-18T16:34:32;-0.40;91.59
51878;SHT31;37911;51.526;11.536;2022-11-18T16:37:38;-0.43;91.69
51878;SHT31;37911;51.526;11.536;2022-11-18T16:40:42;-0.44;91.58
51878;SHT31;37911;51.526;11.536;2022-11-18T16:43:47;-0.46;91.30
51878;SHT31;37911;51.526;11.536;2022-11-18T16:46:52;-0.46;90.75
51878;SHT31;37911;51.526;11.536;2022-11-18T16:49:56;-0.40;90.73
51878;SHT31;37911;51.526;11.536;2022-11-18T16:53:04;-0.41;90.16
51878;SHT31;37911;51.526;11.536;2022-11-18T16:56:08;-0.39;90.00
51878;SHT31;37911;51.526;11.536;2022-11-18T16:59:13;-0.43;90.04
51878;SHT31;37911;51.526;11.536;2022-11-18T17:02:17;-0.40;89.98
51878;SHT31;37911;51.526;11.536;2022-11-18T17:05:23;-0.41;89.80
51878;SHT31;37911;51.526;11.536;2022-11-18T17:08:32;-0.37;89.72
51878;SHT31;37911;51.526;11.536;2022-11-18T17:11:36;-0.40;89.63
51878;SHT31;37911;51.526;11.536;2022-11-18T17:14:39;-0.29;89.98
51878;SHT31;37911;51.526;11.536;2022-11-18T17:17:43;-0.25;89.84
51878;SHT31;37911;51.526;11.536;2022-11-18T17:20:47;-0.23;89.66
51878;SHT31;37911;51.526;11.536;2022-11-18T17:23:54;-0.29;89.70
51878;SHT31;37911;51.526;11.536;2022-11-18T17:26:58;-0.29;89.55
51878;SHT31;37911;51.526;11.536;2022-11-18T17:30:02;-0.19;89.71
51878;SHT31;37911;51.526;11.536;2022-11-18T17:33:07;-0.19;89.81
51878;SHT31;37911;51.526;11.536;2022-11-18T17:36:12;-0.22;90.02
51878;SHT31;37911;51.526;11.536;2022-11-18T17:39:19;-0.20;90.33
51878;SHT31;37911;51.526;11.536;2022-11-18T17:42:23;-0.17;90.20
51878;SHT31;37911;51.526;11.536;2022-11-18T17:45:26;-0.15;90.08
51878;SHT31;37911;51.526;11.536;2022-11-18T17:48:31;-0.19;90.24
51878;SHT31;37911;51.526;11.536;2022-11-18T17:51:35;-0.19;89.99
51878;SHT31;37911;51.526;11.536;2022-11-18T17:54:41;-0.19;90.34
51878;SHT31;37911;51.526;11.536;2022-11-18T17:57:45;-0.22;90.34
51878;SHT31;37911;51.526;11.536;2022-11-18T18:00:49;-0.29;90.48
51878;SHT31;37911;51.526;11.536;2022-11-18T18:03:53;-0.27;90.52
51878;SHT31;37911;51.526;11.536;2022-11-18T18:06:57;-0.26;90.68
51878;SHT31;37911;51.526;11.536;2022-11-18T18:10:04;-0.27;91.01
51878;SHT31;37911;51.526;11.536;2022-11-18T18:13:08;-0.26;90.65
51878;SHT31;37911;51.526;11.536;2022-11-18T18:16:25;-0.30;90.93
51878;SHT31;37911;51.526;11.536;2022-11-18T18:19:29;-0.30;91.16
51878;SHT31;37911;51.526;11.536;2022-11-18T18:22:33;-0.33;91.20
51878;SHT31;37911;51.526;11.536;2022-11-18T18:25:39;-0.27;91.35
51878;SHT31;37911;51.526;11.536;2022-11-18T18:28:43;-0.25;91.52
51878;SHT31;37911;51.526;11.536;2022-11-18T18:31:47;-0.23;91.23
51878;SHT31;37911;51.526;11.536;2022-11-18T18:34:51;-0.27;91.24
51878;SHT31;37911;51.526;11.536;2022-11-18T18:37:55;-0.22;91.21
51878;SHT31;37911;51.526;11.536;2022-11-18T18:41:03;-0.23;91.14
51878;SHT31;37911;51.526;11.536;2022-11-18T18:44:08;-0.16;90.99
51878;SHT31;37911;51.526;11.536;2022-11-18T18:47:11;-0.17;90.73
51878;SHT31;37911;51.526;11.536;2022-11-18T18:50:13;-0.16;90.36
51878;SHT31;37911;51.526;11.536;2022-11-18T18:53:16;-0.16;90.32
51878;SHT31;37911;51.526;11.536;2022-11-18T18:56:24;-0.17;90.14
51878;SHT31;37911;51.526;11.536;2022-11-18T18:59:28;-0.16;90.17
51878;SHT31;37911;51.526;11.536;2022-11-18T19:02:34;-0.22;89.79
51878;SHT31;37911;51.526;11.536;2022-11-18T19:05:37;-0.22;90.32
51878;SHT31;37911;51.526;11.536;2022-11-18T19:08:41;-0.20;89.99
51878;SHT31;37911;51.526;11.536;2022-11-18T19:11:48;-0.17;89.80
51878;SHT31;37911;51.526;11.536;2022-11-18T19:15:05;-0.13;89.71
51878;SHT31;37911;51.526;11.536;2022-11-18T19:18:10;-0.19;89.54
51878;SHT31;37911;51.526;11.536;2022-11-18T19:21:14;-0.22;89.66
51878;SHT31;37911;51.526;11.536;2022-11-18T19:24:17;-0.13;89.73
51878;SHT31;37911;51.526;11.536;2022-11-18T19:27:24;-0.16;90.02
51878;SHT31;37911;51.526;11.536;2022-11-18T19:30:28;-0.16;89.76
51878;SHT31;37911;51.526;11.536;2022-11-18T19:33:32;-0.20;89.98
51878;SHT31;37911;51.526;11.536;2022-11-18T19:36:36;-0.12;90.16
51878;SHT31;37911;51.526;11.536;2022-11-18T19:39:40;-0.17;89.51
51878;SHT31;37911;51.526;11.536;2022-11-18T19:42:47;-0.20;89.43
51878;SHT31;37911;51.526;11.536;2022-11-18T19:45:51;-0.25;89.29